sensor_id;sensor_type;location;lat;lon;timestamp;temperature;humidity
16958;DHT22;8595;52.542;11.974;2023-07-30T00:02:01;17.70;99.90
16958;DHT22;8595;52.542;11.974;2023-07-30T00:04:27;17.60;99.90
16958;DHT22;8595;52.542;11.974;2023-07-30T00:06:54;17.50;99.90
16958;DHT22;8595;52.542;11.974;2023-07-30T00:09:22;17.30;99.90
16958;DHT22;8595;52.542;11.974;2023-07-30T00:11:49;17.30;99.90
16958;DHT22;8595;52.542;11.974;2023-07-30T00:14:16;17.10;99.90
16958;DHT22;8595;52.542;11.974;2023-07-30T00:16:44;17.20;99.90
16958;DHT22;8595;52.542;11.974;2023-07-30T00:19:10;17.30;99.90
16958;DHT22;8595;52.542;11.974;2023-07-30T00:21:37;17.30;99.90
16958;DHT22;8595;52.542;11.974;2023-07-30T00:24:04;17.40;99.90
16958;DHT22;8595;52.542;11.974;2023-07-30T00:26:32;17.50;99.90
16958;DHT22;8595;52.542;11.974;2023-07-30T00:28:59;17.60;99.90
16958;DHT22;8595;52.542;11.974;2023-07-30T00:31:26;17.70;99.90
16958;DHT22;8595;52.542;11.974;2023-07-30T00:33:53;17.70;99.90
16958;DHT22;8595;52.542;11.974;2023-07-30T00:36:20;17.70;99.90
16958;DHT22;8595;52.542;11.974;2023-07-30T00:38:47;17.70;99.90
16958;DHT22;8595;52.542;11.974;2023-07-30T00:41:13;17.50;99.90
16958;DHT22;8595;52.542;11.974;2023-07-30T00:43:42;17.40;99.90
16958;DHT22;8595;52.542;11.974;2023-07-30T00:46:08;17.40;99.90
16958;DHT22;8595;52.542;11.974;2023-07-30T00:48:36;17.30;99.90
16958;DHT22;8595;52.542;11.974;2023-07-30T00:51:03;17.20;99.90
16958;DHT22;8595;52.542;11.974;2023-07-30T00:53:30;17.30;99.90
16958;DHT22;8595;52.542;11.974;2023-07-30T00:55:58;17.30;99.90
16958;DHT22;8595;52.542;11.974;2023-07-30T00:58:25;17.40;99.90
16958;DHT22;8595;52.542;11.974;2023-07-30T01:00:53;17.40;99.90
16958;DHT22;8595;52.542;11.974;2023-07-30T01:03:21;17.40;99.90
16958;DHT22;8595;52.542;11.974;2023-07-30T01:05:47;17.30;99.90
16958;DHT22;8595;52.542;11.974;2023-07-30T01:08:14;17.30;99.90
16958;DHT22;8595;52.542;11.974;2023-07-30T01:10:41;17.20;99.90
16958;DHT22;8595;52.542;11.974;2023-07-30T01:13:09;17.20;99.90
16958;DHT22;8595;52.542;11.974;2023-07-30T01:15:37;17.30;99.90
16958;DHT22;8595;52.542;11.974;2023-07-30T01:18:06;17.30;99.90
16958;DHT22;8595;52.542;11.974;2023-07-30T01:20:33;17.30;99.90
16958;DHT22;8595;52.542;11.974;2023-07-30T01:23:01;17.30;99.90
16958;DHT22;8595;52.542;11.974;2023-07-30T01:25:30;17.30;99.90
16958;DHT22;8595;52.542;11.974;2023-07-30T01:28:01;17.30;99.90
16958;DHT22;8595;52.542;11.974;2023-07-30T01:30:33;17.30;99.90
16958;DHT22;8595;52.542;11.974;2023-07-30T01:33:03;17.30;99.90
16958;DHT22;8595;52.542;11.974;2023-07-30T01:35:32;17.20;99.90
16958;DHT22;8595;52.542;11.974;2023-07-30T01:38:00;17.20;99.90
16958;DHT22;8595;52.542;11.974;2023-07-30T01:40:29;17.20;99.90
16958;DHT22;8595;52.542;11.974;2023-07-30T01:42:56;17.10;99.90
16958;DHT22;8595;52.542;11.974;2023-07-30T01:45:23;17.10;99.90
16958;DHT22;8595;52.542;11.974;2023-07-30T01:47:50;17.10;99.90
16958;DHT22;8595;52.542;11.974;2023-07-30T01:50:16;17.10;99.90
16958;DHT22;8595;52.542;11.974;2023-07-30T01:52:43;17.10;99.90
16958;DHT22;8595;52.542;11.974;2023-07-30T01:55:12;17.20;99.90
16958;DHT22;8595;52.542;11.974;2023-07-30T01:57:38;17.10;99.90
16958;DHT22;8595;52.542;11.974;2023-07-30T02:00:06;17.10;99.90
16958;DHT22;8595;52.542;11.974;2023-07-30T02:02:33;17.10;99.90
16958;DHT22;8595;52.542;11.974;2023-07-30T02:05:01;17.10;99.90
16958;DHT22;8595;52.542;11.974;2023-07-30T02:07:28;17.00;99.90
16958;DHT22;8595;52.542;11.974;2023-07-30T02:09:56;17.00;99.90
16958;DHT22;8595;52.542;11.974;2023-07-30T02:12:24;17.00;99.90
16958;DHT22;8595;52.542;11.974;2023-07-30T02:14:51;17.00;99.90
16958;DHT22;8595;52.542;11.974;2023-07-30T02:17:18;17.00;99.90
16958;DHT22;8595;52.542;11.974;2023-07-30T02:19:45;17.00;99.90
16958;DHT22;8595;52.542;11.974;2023-07-30T02:22:12;16.90;99.90
16958;DHT22;8595;52.542;11.974;2023-07-30T02:24:39;16.90;99.90
16958;DHT22;8595;52.542;11.974;2023-07-30T02:27:06;17.00;99.90
16958;DHT22;8595;52.542;11.974;2023-07-30T02:29:34;16.90;99.90
16958;DHT22;8595;52.542;11.974;2023-07-30T02:32:01;16.90;99.90
16958;DHT22;8595;52.542;11.974;2023-07-30T02:34:28;16.90;99.90
16958;DHT22;8595;52.542;11.974;2023-07-30T02:36:54;16.80;99.90
16958;DHT22;8595;52.542;11.974;2023-07-30T02:39:22;16.90;99.90
16958;DHT22;8595;52.542;11.974;2023-07-30T02:41:49;16.80;99.90
16958;DHT22;8595;52.542;11.974;2023-07-30T02:44:16;16.80;99.90
16958;DHT22;8595;52.542;11.974;2023-07-30T02:46:44;16.80;99.90
16958;DHT22;8595;52.542;11.974;2023-07-30T02:49:11;16.80;99.90
16958;DHT22;8595;52.542;11.974;2023-07-30T02:51:38;16.80;99.90
16958;DHT22;8595;52.542;11.974;2023-07-30T02:54:07;16.70;99.90
16958;DHT22;8595;52.542;11.974;2023-07-30T02:56:35;16.70;99.90
16958;DHT22;8595;52.542;11.974;2023-07-30T02:59:02;16.70;99.90
16958;DHT22;8595;52.542;11.974;2023-07-30T03:01:29;16.60;99.90
16958;DHT22;8595;52.542;11.974;2023-07-30T03:03:57;16.50;99.90
16958;DHT22;8595;52.542;11.974;2023-07-30T03:06:24;16.50;99.90
16958;DHT22;8595;52.542;11.974;2023-07-30T03:08:50;16.50;99.90
16958;DHT22;8595;52.542;11.974;2023-07-30T03:11:17;16.60;99.90
16958;DHT22;8595;52.542;11.974;2023-07-30T03:13:44;16.60;99.90
16958;DHT22;8595;52.542;11.974;2023-07-30T03:16:11;16.60;99.90
16958;DHT22;8595;52.542;11.974;2023-07-30T03:18:38;16.60;99.90
16958;DHT22;8595;52.542;11.974;2023-07-30T03:21:06;16.80;99.90
16958;DHT22;8595;52.542;11.974;2023-07-30T03:23:33;16.80;99.90
16958;DHT22;8595;52.542;11.974;2023-07-30T03:26:00;17.00;99.90
16958;DHT22;8595;52.542;11.974;2023-07-30T03:28:26;17.10;99.90
16958;DHT22;8595;52.542;11.974;2023-07-30T03:30:53;17.10;99.90
16958;DHT22;8595;52.542;11.974;2023-07-30T03:33:20;17.10;99.90
16958;DHT22;8595;52.542;11.974;2023-07-30T03:35:47;17.00;99.90
16958;DHT22;8595;52.542;11.974;2023-07-30T03:38:15;16.90;99.90
16958;DHT22;8595;52.542;11.974;2023-07-30T03:40:42;16.90;99.90
16958;DHT22;8595;52.542;11.974;2023-07-30T03:43:09;16.90;99.90
16958;DHT22;8595;52.542;11.974;2023-07-30T03:45:36;16.90;99.90
16958;DHT22;8595;52.542;11.974;2023-07-30T03:48:03;17.00;99.90
16958;DHT22;8595;52.542;11.974;2023-07-30T03:50:30;17.00;99.90
16958;DHT22;8595;52.542;11.974;2023-07-30T03:52:57;16.90;99.90
16958;DHT22;8595;52.542;11.974;2023-07-30T03:55:25;17.00;99.90
16958;DHT22;8595;52.542;11.974;2023-07-30T03:57:53;17.10;99.90
16958;DHT22;8595;52.542;11.974;2023-07-30T04:00:19;17.20;99.90
16958;DHT22;8595;52.542;11.974;2023-07-30T04:02:46;17.20;99.90
16958;DHT22;8595;52.542;11.974;2023-07-30T04:05:13;17.30;99.90
16958;DHT22;8595;52.542;11.974;2023-07-30T04:07:40;17.30;99.90
16958;DHT22;8595;52.542;11.974;2023-07-30T04:10:08;17.30;99.90
16958;DHT22;8595;52.542;11.974;2023-07-30T04:12:36;17.40;99.90
16958;DHT22;8595;52.542;11.974;2023-07-30T04:15:03;17.40;99.90
16958;DHT22;8595;52.542;11.974;2023-07-30T04:17:30;17.40;99.90
16958;DHT22;8595;52.542;11.974;2023-07-30T04:19:57;17.50;99.90
16958;DHT22;8595;52.542;11.974;2023-07-30T04:22:24;17.50;99.90
16958;DHT22;8595;52.542;11.974;2023-07-30T04:24:51;17.50;99.90
16958;DHT22;8595;52.542;11.974;2023-07-30T04:27:18;17.50;99.90
16958;DHT22;8595;52.542;11.974;2023-07-30T04:29:46;17.60;99.90
16958;DHT22;8595;52.542;11.974;2023-07-30T04:32:13;17.50;99.90
16958;DHT22;8595;52.542;11.974;2023-07-30T04:34:40;17.50;99.90
16958;DHT22;8595;52.542;11.974;2023-07-30T04:37:07;17.40;99.90
16958;DHT22;8595;52.542;11.974;2023-07-30T04:39:35;17.50;99.90
16958;DHT22;8595;52.542;11.974;2023-07-30T04:42:03;17.50;99.90
16958;DHT22;8595;52.542;11.974;2023-07-30T04:44:30;17.60;99.90
16958;DHT22;8595;52.542;11.974;2023-07-30T04:46:59;17.70;99.90
16958;DHT22;8595;52.542;11.974;2023-07-30T04:49:26;17.60;99.90
16958;DHT22;8595;52.542;11.974;2023-07-30T04:51:53;17.50;99.90
16958;DHT22;8595;52.542;11.974;2023-07-30T04:54:20;17.50;99.90
16958;DHT22;8595;52.542;11.974;2023-07-30T04:56:46;17.50;99.90
16958;DHT22;8595;52.542;11.974;2023-07-30T04:59:13;17.60;99.90
16958;DHT22;8595;52.542;11.974;2023-07-30T05:01:40;17.60;99.90
16958;DHT22;8595;52.542;11.974;2023-07-30T05:04:09;17.70;99.90
16958;DHT22;8595;52.542;11.974;2023-07-30T05:06:35;17.70;99.90
16958;DHT22;8595;52.542;11.974;2023-07-30T05:09:02;17.70;99.90
16958;DHT22;8595;52.542;11.974;2023-07-30T05:11:29;17.70;99.90
16958;DHT22;8595;52.542;11.974;2023-07-30T05:13:56;17.70;99.90
16958;DHT22;8595;52.542;11.974;2023-07-30T05:16:23;17.80;99.90
16958;DHT22;8595;52.542;11.974;2023-07-30T05:18:50;17.80;99.90
16958;DHT22;8595;52.542;11.974;2023-07-30T05:21:18;17.80;99.90
16958;DHT22;8595;52.542;11.974;2023-07-30T05:23:45;17.80;99.90
16958;DHT22;8595;52.542;11.974;2023-07-30T05:26:12;17.80;99.90
16958;DHT22;8595;52.542;11.974;2023-07-30T05:28:39;17.80;99.90
16958;DHT22;8595;52.542;11.974;2023-07-30T05:31:05;17.90;99.90
16958;DHT22;8595;52.542;11.974;2023-07-30T05:33:32;17.90;99.90
16958;DHT22;8595;52.542;11.974;2023-07-30T05:35:59;18.00;99.90
16958;DHT22;8595;52.542;11.974;2023-07-30T05:38:27;18.00;99.90
16958;DHT22;8595;52.542;11.974;2023-07-30T05:40:54;18.10;99.90
16958;DHT22;8595;52.542;11.974;2023-07-30T05:43:21;18.20;99.90
16958;DHT22;8595;52.542;11.974;2023-07-30T05:45:48;18.20;99.90
16958;DHT22;8595;52.542;11.974;2023-07-30T05:48:15;18.30;99.90
16958;DHT22;8595;52.542;11.974;2023-07-30T05:50:42;18.40;99.90
16958;DHT22;8595;52.542;11.974;2023-07-30T05:53:08;18.50;99.90
16958;DHT22;8595;52.542;11.974;2023-07-30T05:55:37;18.60;99.90
16958;DHT22;8595;52.542;11.974;2023-07-30T05:58:04;18.70;99.90
16958;DHT22;8595;52.542;11.974;2023-07-30T06:00:31;18.80;99.90
16958;DHT22;8595;52.542;11.974;2023-07-30T06:02:58;18.80;99.90
16958;DHT22;8595;52.542;11.974;2023-07-30T06:05:24;19.00;99.90
16958;DHT22;8595;52.542;11.974;2023-07-30T06:07:51;19.10;99.90
16958;DHT22;8595;52.542;11.974;2023-07-30T06:10:18;19.20;99.90
16958;DHT22;8595;52.542;11.974;2023-07-30T06:12:46;19.20;99.90
16958;DHT22;8595;52.542;11.974;2023-07-30T06:15:13;19.20;99.90
16958;DHT22;8595;52.542;11.974;2023-07-30T06:17:41;19.20;99.90
16958;DHT22;8595;52.542;11.974;2023-07-30T06:20:09;19.30;99.90
16958;DHT22;8595;52.542;11.974;2023-07-30T06:22:36;19.40;99.90
16958;DHT22;8595;52.542;11.974;2023-07-30T06:25:03;19.40;99.90
16958;DHT22;8595;52.542;11.974;2023-07-30T06:27:30;19.40;99.90
16958;DHT22;8595;52.542;11.974;2023-07-30T06:29:59;19.40;99.90
16958;DHT22;8595;52.542;11.974;2023-07-30T06:32:26;19.50;99.90
16958;DHT22;8595;52.542;11.974;2023-07-30T06:34:53;19.50;99.90
16958;DHT22;8595;52.542;11.974;2023-07-30T06:37:20;19.60;99.90
16958;DHT22;8595;52.542;11.974;2023-07-30T06:39:47;19.80;99.90
16958;DHT22;8595;52.542;11.974;2023-07-30T06:42:13;19.80;99.90
16958;DHT22;8595;52.542;11.974;2023-07-30T06:44:40;19.90;99.90
16958;DHT22;8595;52.542;11.974;2023-07-30T06:47:09;20.10;99.90
16958;DHT22;8595;52.542;11.974;2023-07-30T06:49:36;20.00;99.90
16958;DHT22;8595;52.542;11.974;2023-07-30T06:52:04;20.00;99.90
16958;DHT22;8595;52.542;11.974;2023-07-30T06:54:31;20.20;99.90
16958;DHT22;8595;52.542;11.974;2023-07-30T06:56:58;20.20;99.90
16958;DHT22;8595;52.542;11.974;2023-07-30T06:59:25;20.20;99.90
16958;DHT22;8595;52.542;11.974;2023-07-30T07:01:52;20.30;99.90
16958;DHT22;8595;52.542;11.974;2023-07-30T07:04:20;20.40;99.90
16958;DHT22;8595;52.542;11.974;2023-07-30T07:06:48;20.30;99.90
16958;DHT22;8595;52.542;11.974;2023-07-30T07:09:17;20.30;99.90
16958;DHT22;8595;52.542;11.974;2023-07-30T07:11:44;20.50;99.90
16958;DHT22;8595;52.542;11.974;2023-07-30T07:14:11;20.50;99.90
16958;DHT22;8595;52.542;11.974;2023-07-30T07:16:38;20.60;99.90
16958;DHT22;8595;52.542;11.974;2023-07-30T07:19:05;20.80;99.90
16958;DHT22;8595;52.542;11.974;2023-07-30T07:21:33;20.80;99.90
16958;DHT22;8595;52.542;11.974;2023-07-30T07:24:00;20.70;99.90
16958;DHT22;8595;52.542;11.974;2023-07-30T07:26:27;20.60;99.90
16958;DHT22;8595;52.542;11.974;2023-07-30T07:28:55;20.70;99.90
16958;DHT22;8595;52.542;11.974;2023-07-30T07:31:22;20.80;99.90
16958;DHT22;8595;52.542;11.974;2023-07-30T07:33:49;20.70;99.90
16958;DHT22;8595;52.542;11.974;2023-07-30T07:36:17;20.70;99.90
16958;DHT22;8595;52.542;11.974;2023-07-30T07:38:45;20.90;99.90
16958;DHT22;8595;52.542;11.974;2023-07-30T07:41:14;20.90;99.90
16958;DHT22;8595;52.542;11.974;2023-07-30T07:43:42;20.90;99.90
16958;DHT22;8595;52.542;11.974;2023-07-30T07:46:09;20.80;99.90
16958;DHT22;8595;52.542;11.974;2023-07-30T07:48:39;20.60;99.90
16958;DHT22;8595;52.542;11.974;2023-07-30T07:51:06;20.60;99.90
16958;DHT22;8595;52.542;11.974;2023-07-30T07:53:35;20.60;99.90
16958;DHT22;8595;52.542;11.974;2023-07-30T07:56:04;20.70;99.90
16958;DHT22;8595;52.542;11.974;2023-07-30T07:58:31;21.00;99.90
16958;DHT22;8595;52.542;11.974;2023-07-30T08:00:58;21.00;99.90
16958;DHT22;8595;52.542;11.974;2023-07-30T08:03:25;21.10;99.90
16958;DHT22;8595;52.542;11.974;2023-07-30T08:05:53;20.90;99.90
16958;DHT22;8595;52.542;11.974;2023-07-30T08:08:20;20.80;99.90
16958;DHT22;8595;52.542;11.974;2023-07-30T08:10:47;20.70;99.90
16958;DHT22;8595;52.542;11.974;2023-07-30T08:13:15;20.80;99.90
16958;DHT22;8595;52.542;11.974;2023-07-30T08:15:42;21.00;99.90
16958;DHT22;8595;52.542;11.974;2023-07-30T08:18:08;21.10;99.90
16958;DHT22;8595;52.542;11.974;2023-07-30T08:20:35;21.10;99.90
16958;DHT22;8595;52.542;11.974;2023-07-30T08:23:02;21.10;99.90
16958;DHT22;8595;52.542;11.974;2023-07-30T08:25:29;21.30;99.90
16958;DHT22;8595;52.542;11.974;2023-07-30T08:27:56;21.50;99.90
16958;DHT22;8595;52.542;11.974;2023-07-30T08:30:24;21.50;99.90
16958;DHT22;8595;52.542;11.974;2023-07-30T08:32:51;21.80;99.90
16958;DHT22;8595;52.542;11.974;2023-07-30T08:35:18;21.60;99.90
16958;DHT22;8595;52.542;11.974;2023-07-30T08:37:45;21.70;99.90
16958;DHT22;8595;52.542;11.974;2023-07-30T08:40:15;21.90;99.90
16958;DHT22;8595;52.542;11.974;2023-07-30T08:42:45;22.10;99.90
16958;DHT22;8595;52.542;11.974;2023-07-30T08:45:12;22.10;99.90
16958;DHT22;8595;52.542;11.974;2023-07-30T08:47:41;22.00;99.90
16958;DHT22;8595;52.542;11.974;2023-07-30T08:50:08;22.10;99.90
16958;DHT22;8595;52.542;11.974;2023-07-30T08:52:35;22.20;99.90
16958;DHT22;8595;52.542;11.974;2023-07-30T08:55:03;22.20;99.90
16958;DHT22;8595;52.542;11.974;2023-07-30T08:57:31;22.20;99.90
16958;DHT22;8595;52.542;11.974;2023-07-30T09:00:02;22.20;99.90
16958;DHT22;8595;52.542;11.974;2023-07-30T09:02:33;23.20;99.90
16958;DHT22;8595;52.542;11.974;2023-07-30T09:05:02;24.30;99.90
16958;DHT22;8595;52.542;11.974;2023-07-30T09:07:29;24.90;99.90
16958;DHT22;8595;52.542;11.974;2023-07-30T09:09:56;24.80;99.90
16958;DHT22;8595;52.542;11.974;2023-07-30T09:12:28;24.50;99.90
16958;DHT22;8595;52.542;11.974;2023-07-30T09:14:57;24.40;99.90
16958;DHT22;8595;52.542;11.974;2023-07-30T09:17:24;24.00;99.90
16958;DHT22;8595;52.542;11.974;2023-07-30T09:19:52;24.20;99.90
16958;DHT22;8595;52.542;11.974;2023-07-30T09:22:26;24.80;99.90
16958;DHT22;8595;52.542;11.974;2023-07-30T09:24:54;25.40;99.90
16958;DHT22;8595;52.542;11.974;2023-07-30T09:27:22;25.20;99.90
16958;DHT22;8595;52.542;11.974;2023-07-30T09:29:52;25.70;99.90
16958;DHT22;8595;52.542;11.974;2023-07-30T09:32:19;25.90;99.90
16958;DHT22;8595;52.542;11.974;2023-07-30T09:34:46;25.50;99.90
16958;DHT22;8595;52.542;11.974;2023-07-30T09:37:13;25.00;99.90
16958;DHT22;8595;52.542;11.974;2023-07-30T09:39:43;25.00;99.90
16958;DHT22;8595;52.542;11.974;2023-07-30T09:42:10;24.50;99.90
16958;DHT22;8595;52.542;11.974;2023-07-30T09:44:37;24.30;99.90
16958;DHT22;8595;52.542;11.974;2023-07-30T09:47:05;25.00;99.90
16958;DHT22;8595;52.542;11.974;2023-07-30T09:49:36;25.90;99.90
16958;DHT22;8595;52.542;11.974;2023-07-30T09:52:03;26.60;99.90
16958;DHT22;8595;52.542;11.974;2023-07-30T09:54:31;26.30;99.90
16958;DHT22;8595;52.542;11.974;2023-07-30T09:57:00;26.40;99.90
16958;DHT22;8595;52.542;11.974;2023-07-30T09:59:27;26.50;99.90
16958;DHT22;8595;52.542;11.974;2023-07-30T10:01:54;26.50;99.90
16958;DHT22;8595;52.542;11.974;2023-07-30T10:04:22;26.30;99.90
16958;DHT22;8595;52.542;11.974;2023-07-30T10:06:53;26.50;99.90
16958;DHT22;8595;52.542;11.974;2023-07-30T10:09:22;27.30;99.90
16958;DHT22;8595;52.542;11.974;2023-07-30T10:11:51;27.60;99.90
16958;DHT22;8595;52.542;11.974;2023-07-30T10:14:22;26.50;99.90
16958;DHT22;8595;52.542;11.974;2023-07-30T10:16:54;26.40;99.90
16958;DHT22;8595;52.542;11.974;2023-07-30T10:19:25;26.90;99.90
16958;DHT22;8595;52.542;11.974;2023-07-30T10:21:54;26.90;99.90
16958;DHT22;8595;52.542;11.974;2023-07-30T10:24:25;26.90;99.90
16958;DHT22;8595;52.542;11.974;2023-07-30T10:26:53;26.90;99.90
16958;DHT22;8595;52.542;11.974;2023-07-30T10:29:24;27.20;99.90
16958;DHT22;8595;52.542;11.974;2023-07-30T10:31:53;27.50;99.90
16958;DHT22;8595;52.542;11.974;2023-07-30T10:34:20;27.40;99.90
16958;DHT22;8595;52.542;11.974;2023-07-30T10:36:49;27.00;99.90
16958;DHT22;8595;52.542;11.974;2023-07-30T10:39:18;27.10;99.90
16958;DHT22;8595;52.542;11.974;2023-07-30T10:41:46;27.10;99.90
16958;DHT22;8595;52.542;11.974;2023-07-30T10:44:21;27.10;99.90
16958;DHT22;8595;52.542;11.974;2023-07-30T10:46:50;27.10;99.90
16958;DHT22;8595;52.542;11.974;2023-07-30T10:49:17;27.10;99.90
16958;DHT22;8595;52.542;11.974;2023-07-30T10:51:43;27.20;99.90
16958;DHT22;8595;52.542;11.974;2023-07-30T10:54:10;27.10;99.90
16958;DHT22;8595;52.542;11.974;2023-07-30T10:56:38;26.80;99.90
16958;DHT22;8595;52.542;11.974;2023-07-30T10:59:06;26.80;99.90
16958;DHT22;8595;52.542;11.974;2023-07-30T11:01:36;26.50;99.90
16958;DHT22;8595;52.542;11.974;2023-07-30T11:04:08;26.10;99.90
16958;DHT22;8595;52.542;11.974;2023-07-30T11:06:35;26.10;99.90
16958;DHT22;8595;52.542;11.974;2023-07-30T11:09:02;25.80;99.90
16958;DHT22;8595;52.542;11.974;2023-07-30T11:11:29;25.80;99.90
16958;DHT22;8595;52.542;11.974;2023-07-30T11:13:57;25.60;99.90
16958;DHT22;8595;52.542;11.974;2023-07-30T11:16:24;25.80;99.90
16958;DHT22;8595;52.542;11.974;2023-07-30T11:18:52;26.30;99.90
16958;DHT22;8595;52.542;11.974;2023-07-30T11:21:20;26.00;99.90
16958;DHT22;8595;52.542;11.974;2023-07-30T11:23:47;26.10;99.90
16958;DHT22;8595;52.542;11.974;2023-07-30T11:26:16;26.20;99.90
16958;DHT22;8595;52.542;11.974;2023-07-30T11:28:44;25.90;99.90
16958;DHT22;8595;52.542;11.974;2023-07-30T11:31:13;25.70;99.90
16958;DHT22;8595;52.542;11.974;2023-07-30T11:33:43;25.70;99.90
16958;DHT22;8595;52.542;11.974;2023-07-30T11:36:12;26.00;99.90
16958;DHT22;8595;52.542;11.974;2023-07-30T11:38:41;26.00;99.90
16958;DHT22;8595;52.542;11.974;2023-07-30T11:41:09;26.10;99.90
16958;DHT22;8595;52.542;11.974;2023-07-30T11:43:37;26.40;99.90
16958;DHT22;8595;52.542;11.974;2023-07-30T11:46:09;26.50;99.90
16958;DHT22;8595;52.542;11.974;2023-07-30T11:48:36;26.60;99.90
16958;DHT22;8595;52.542;11.974;2023-07-30T11:51:03;26.30;99.90
16958;DHT22;8595;52.542;11.974;2023-07-30T11:53:50;26.30;99.90
16958;DHT22;8595;52.542;11.974;2023-07-30T11:56:19;26.10;99.90
16958;DHT22;8595;52.542;11.974;2023-07-30T11:58:47;25.90;99.90
16958;DHT22;8595;52.542;11.974;2023-07-30T12:01:15;25.60;99.90
16958;DHT22;8595;52.542;11.974;2023-07-30T12:03:42;25.40;99.90
16958;DHT22;8595;52.542;11.974;2023-07-30T12:06:10;25.40;99.90
16958;DHT22;8595;52.542;11.974;2023-07-30T12:08:37;25.30;99.90
16958;DHT22;8595;52.542;11.974;2023-07-30T12:11:06;25.10;99.90
16958;DHT22;8595;52.542;11.974;2023-07-30T12:13:34;24.90;99.90
16958;DHT22;8595;52.542;11.974;2023-07-30T12:16:01;24.80;99.90
16958;DHT22;8595;52.542;11.974;2023-07-30T12:18:28;24.60;99.90
16958;DHT22;8595;52.542;11.974;2023-07-30T12:20:55;24.60;99.90
16958;DHT22;8595;52.542;11.974;2023-07-30T12:23:23;24.30;99.90
16958;DHT22;8595;52.542;11.974;2023-07-30T12:25:51;24.30;99.90
16958;DHT22;8595;52.542;11.974;2023-07-30T12:28:20;24.50;99.90
16958;DHT22;8595;52.542;11.974;2023-07-30T12:30:47;24.50;99.90
16958;DHT22;8595;52.542;11.974;2023-07-30T12:33:14;24.20;99.90
16958;DHT22;8595;52.542;11.974;2023-07-30T12:35:41;24.20;99.90
16958;DHT22;8595;52.542;11.974;2023-07-30T12:38:07;24.00;99.90
16958;DHT22;8595;52.542;11.974;2023-07-30T12:40:34;24.00;99.90
16958;DHT22;8595;52.542;11.974;2023-07-30T12:43:02;24.10;99.90
16958;DHT22;8595;52.542;11.974;2023-07-30T12:45:30;24.20;99.90
16958;DHT22;8595;52.542;11.974;2023-07-30T12:47:58;24.00;99.90
16958;DHT22;8595;52.542;11.974;2023-07-30T12:50:25;23.70;99.90
16958;DHT22;8595;52.542;11.974;2023-07-30T12:52:51;23.90;99.90
16958;DHT22;8595;52.542;11.974;2023-07-30T12:55:18;23.80;99.90
16958;DHT22;8595;52.542;11.974;2023-07-30T12:57:45;23.90;99.90
16958;DHT22;8595;52.542;11.974;2023-07-30T13:00:12;23.60;99.90
16958;DHT22;8595;52.542;11.974;2023-07-30T13:02:41;23.50;99.90
16958;DHT22;8595;52.542;11.974;2023-07-30T13:05:08;23.40;99.90
16958;DHT22;8595;52.542;11.974;2023-07-30T13:07:35;23.00;99.90
16958;DHT22;8595;52.542;11.974;2023-07-30T13:10:04;22.80;99.90
16958;DHT22;8595;52.542;11.974;2023-07-30T13:12:32;22.80;99.90
16958;DHT22;8595;52.542;11.974;2023-07-30T13:14:59;22.70;99.90
16958;DHT22;8595;52.542;11.974;2023-07-30T13:17:26;22.60;99.90
16958;DHT22;8595;52.542;11.974;2023-07-30T13:19:54;22.60;99.90
16958;DHT22;8595;52.542;11.974;2023-07-30T13:22:21;22.60;99.90
16958;DHT22;8595;52.542;11.974;2023-07-30T13:24:48;22.60;99.90
16958;DHT22;8595;52.542;11.974;2023-07-30T13:27:16;22.60;99.90
16958;DHT22;8595;52.542;11.974;2023-07-30T13:29:42;22.60;99.90
16958;DHT22;8595;52.542;11.974;2023-07-30T13:32:09;22.50;99.90
16958;DHT22;8595;52.542;11.974;2023-07-30T13:34:36;22.50;99.90
16958;DHT22;8595;52.542;11.974;2023-07-30T13:37:04;22.50;99.90
16958;DHT22;8595;52.542;11.974;2023-07-30T13:39:31;22.30;99.90
16958;DHT22;8595;52.542;11.974;2023-07-30T13:41:58;22.20;99.90
16958;DHT22;8595;52.542;11.974;2023-07-30T13:44:25;22.20;99.90
16958;DHT22;8595;52.542;11.974;2023-07-30T13:46:52;22.30;99.90
16958;DHT22;8595;52.542;11.974;2023-07-30T13:49:20;22.40;99.90
16958;DHT22;8595;52.542;11.974;2023-07-30T13:51:47;22.30;99.90
16958;DHT22;8595;52.542;11.974;2023-07-30T13:54:15;22.40;99.90
16958;DHT22;8595;52.542;11.974;2023-07-30T13:56:42;22.40;99.90
16958;DHT22;8595;52.542;11.974;2023-07-30T13:59:08;22.40;99.90
16958;DHT22;8595;52.542;11.974;2023-07-30T14:01:36;22.30;99.90
16958;DHT22;8595;52.542;11.974;2023-07-30T14:04:03;22.20;99.90
16958;DHT22;8595;52.542;11.974;2023-07-30T14:06:30;22.10;99.90
16958;DHT22;8595;52.542;11.974;2023-07-30T14:08:57;22.10;99.90
16958;DHT22;8595;52.542;11.974;2023-07-30T14:11:26;22.10;99.90
16958;DHT22;8595;52.542;11.974;2023-07-30T14:13:53;22.00;99.90
16958;DHT22;8595;52.542;11.974;2023-07-30T14:16:21;21.90;99.90
16958;DHT22;8595;52.542;11.974;2023-07-30T14:18:48;21.70;99.90
16958;DHT22;8595;52.542;11.974;2023-07-30T14:21:15;21.80;99.90
16958;DHT22;8595;52.542;11.974;2023-07-30T14:23:41;21.90;99.90
16958;DHT22;8595;52.542;11.974;2023-07-30T14:26:08;22.00;99.90
16958;DHT22;8595;52.542;11.974;2023-07-30T14:28:36;22.00;99.90
16958;DHT22;8595;52.542;11.974;2023-07-30T14:31:03;22.10;99.90
16958;DHT22;8595;52.542;11.974;2023-07-30T14:33:30;22.20;99.90
16958;DHT22;8595;52.542;11.974;2023-07-30T14:35:57;22.40;99.90
16958;DHT22;8595;52.542;11.974;2023-07-30T14:38:24;22.30;99.90
16958;DHT22;8595;52.542;11.974;2023-07-30T14:40:51;22.50;99.90
16958;DHT22;8595;52.542;11.974;2023-07-30T14:43:17;22.60;99.90
16958;DHT22;8595;52.542;11.974;2023-07-30T14:45:46;23.20;99.90
16958;DHT22;8595;52.542;11.974;2023-07-30T14:48:12;23.70;99.90
16958;DHT22;8595;52.542;11.974;2023-07-30T14:50:39;24.20;99.90
16958;DHT22;8595;52.542;11.974;2023-07-30T14:53:06;23.80;99.90
16958;DHT22;8595;52.542;11.974;2023-07-30T14:55:33;23.50;99.90
16958;DHT22;8595;52.542;11.974;2023-07-30T14:58:00;23.40;99.90
16958;DHT22;8595;52.542;11.974;2023-07-30T15:00:29;23.40;99.90
16958;DHT22;8595;52.542;11.974;2023-07-30T15:02:57;23.40;99.90
16958;DHT22;8595;52.542;11.974;2023-07-30T15:05:23;23.40;99.90
16958;DHT22;8595;52.542;11.974;2023-07-30T15:07:49;23.50;99.90
16958;DHT22;8595;52.542;11.974;2023-07-30T15:10:16;23.40;99.90
16958;DHT22;8595;52.542;11.974;2023-07-30T15:12:43;23.30;99.90
16958;DHT22;8595;52.542;11.974;2023-07-30T15:15:10;23.60;99.90
16958;DHT22;8595;52.542;11.974;2023-07-30T15:17:37;24.20;99.90
16958;DHT22;8595;52.542;11.974;2023-07-30T15:20:06;24.70;99.90
16958;DHT22;8595;52.542;11.974;2023-07-30T15:22:33;25.00;99.90
16958;DHT22;8595;52.542;11.974;2023-07-30T15:25:00;25.20;99.90
16958;DHT22;8595;52.542;11.974;2023-07-30T15:27:28;25.30;99.90
16958;DHT22;8595;52.542;11.974;2023-07-30T15:29:55;25.10;99.90
16958;DHT22;8595;52.542;11.974;2023-07-30T15:32:22;24.60;99.90